sensor_id;sensor_type;location;lat;lon;timestamp;pressure;altitude;pressure_sealevel;temperature;humidity
36242;BME280;22283;42.748;12.732;2022-08-26T00:01:53;97727.72;;;22.75;60.79
36242;BME280;22283;42.748;12.732;2022-08-26T00:06:55;97726.78;;;22.54;61.08
36242;BME280;22283;42.748;12.732;2022-08-26T00:11:56;97723.22;;;22.19;61.95
36242;BME280;22283;42.748;12.732;2022-08-26T00:16:56;97727.47;;;22.35;62.37
36242;BME280;22283;42.748;12.732;2022-08-26T00:21:57;97727.38;;;22.50;61.39
36242;BME280;22283;42.748;12.732;2022-08-26T00:26:58;97731.09;;;22.49;61.41
36242;BME280;22283;42.748;12.732;2022-08-26T00:31:59;97729.72;;;22.59;61.08
36242;BME280;22283;42.748;12.732;2022-08-26T00:36:59;97738.31;;;22.14;62.16
36242;BME280;22283;42.748;12.732;2022-08-26T00:42:00;97737.22;;;21.87;63.19
36242;BME280;22283;42.748;12.732;2022-08-26T00:47:03;97728.81;;;21.96;63.65
36242;BME280;22283;42.748;12.732;2022-08-26T00:52:08;97735.78;;;22.40;62.27
36242;BME280;22283;42.748;12.732;2022-08-26T00:57:12;97735.91;;;22.53;61.22
36242;BME280;22283;42.748;12.732;2022-08-26T01:02:15;97732.94;;;22.42;61.36
36242;BME280;22283;42.748;12.732;2022-08-26T01:07:16;97730.34;;;22.62;60.88
36242;BME280;22283;42.748;12.732;2022-08-26T01:12:17;97725.41;;;22.65;60.54
36242;BME280;22283;42.748;12.732;2022-08-26T01:17:17;97720.56;;;22.61;60.68
36242;BME280;22283;42.748;12.732;2022-08-26T01:22:19;97728.75;;;22.39;61.30
36242;BME280;22283;42.748;12.732;2022-08-26T01:27:21;97728.41;;;22.21;61.90
36242;BME280;22283;42.748;12.732;2022-08-26T01:32:23;97727.72;;;22.40;61.24
36242;BME280;22283;42.748;12.732;2022-08-26T01:37:28;97727.13;;;22.45;60.98
36242;BME280;22283;42.748;12.732;2022-08-26T01:42:32;97720.13;;;22.50;60.67
36242;BME280;22283;42.748;12.732;2022-08-26T01:47:34;97718.34;;;22.36;61.00
36242;BME280;22283;42.748;12.732;2022-08-26T01:52:38;97712.09;;;22.29;60.90
36242;BME280;22283;42.748;12.732;2022-08-26T01:57:42;97707.25;;;22.18;61.48
36242;BME280;22283;42.748;12.732;2022-08-26T02:02:46;97709.44;;;22.36;61.02
36242;BME280;22283;42.748;12.732;2022-08-26T02:07:47;97707.50;;;22.23;61.23
36242;BME280;22283;42.748;12.732;2022-08-26T02:12:50;97718.19;;;21.30;63.48
36242;BME280;22283;42.748;12.732;2022-08-26T02:17:50;97715.06;;;20.76;65.98
36242;BME280;22283;42.748;12.732;2022-08-26T02:22:51;97722.31;;;21.11;65.21
36242;BME280;22283;42.748;12.732;2022-08-26T02:27:52;97717.47;;;21.36;64.58
36242;BME280;22283;42.748;12.732;2022-08-26T02:32:54;97714.34;;;21.76;63.21
36242;BME280;22283;42.748;12.732;2022-08-26T02:37:55;97731.78;;;21.58;62.88
36242;BME280;22283;42.748;12.732;2022-08-26T02:42:56;97719.78;;;21.25;64.17
36242;BME280;22283;42.748;12.732;2022-08-26T02:47:56;97719.41;;;21.28;65.15
36242;BME280;22283;42.748;12.732;2022-08-26T02:52:58;97711.31;;;21.64;63.79
36242;BME280;22283;42.748;12.732;2022-08-26T02:57:58;97709.94;;;21.96;62.65
36242;BME280;22283;42.748;12.732;2022-08-26T03:02:59;97714.81;;;22.07;61.72
36242;BME280;22283;42.748;12.732;2022-08-26T03:08:00;97719.19;;;21.87;61.76
36242;BME280;22283;42.748;12.732;2022-08-26T03:13:01;97724.53;;;21.80;62.43
36242;BME280;22283;42.748;12.732;2022-08-26T03:18:01;97719.50;;;21.77;62.26
36242;BME280;22283;42.748;12.732;2022-08-26T03:23:02;97711.25;;;21.79;62.39
36242;BME280;22283;42.748;12.732;2022-08-26T03:28:03;97714.78;;;21.58;63.05
36242;BME280;22283;42.748;12.732;2022-08-26T03:33:04;97714.34;;;21.54;62.73
36242;BME280;22283;42.748;12.732;2022-08-26T03:38:05;97709.19;;;21.38;63.56
36242;BME280;22283;42.748;12.732;2022-08-26T03:43:08;97701.13;;;21.59;62.98
36242;BME280;22283;42.748;12.732;2022-08-26T03:48:09;97702.16;;;21.58;62.73
36242;BME280;22283;42.748;12.732;2022-08-26T03:53:11;97713.78;;;21.08;64.04
36242;BME280;22283;42.748;12.732;2022-08-26T03:58:11;97695.69;;;20.66;65.01
36242;BME280;22283;42.748;12.732;2022-08-26T04:03:12;97702.28;;;20.10;67.28
36242;BME280;22283;42.748;12.732;2022-08-26T04:08:33;97701.66;;;20.38;67.07
36242;BME280;22283;42.748;12.732;2022-08-26T04:13:34;97692.25;;;20.72;66.27
36242;BME280;22283;42.748;12.732;2022-08-26T04:18:34;97686.06;;;21.07;64.68
36242;BME280;22283;42.748;12.732;2022-08-26T04:23:38;97686.59;;;21.18;64.40
36242;BME280;22283;42.748;12.732;2022-08-26T04:28:38;97692.25;;;21.23;64.04
36242;BME280;22283;42.748;12.732;2022-08-26T04:33:41;97689.28;;;21.18;63.84
36242;BME280;22283;42.748;12.732;2022-08-26T04:38:42;97689.09;;;20.53;65.63
36242;BME280;22283;42.748;12.732;2022-08-26T04:43:46;97686.31;;;20.32;66.39
36242;BME280;22283;42.748;12.732;2022-08-26T04:48:48;97684.19;;;20.27;66.71
36242;BME280;22283;42.748;12.732;2022-08-26T04:53:51;97677.41;;;20.46;66.90
36242;BME280;22283;42.748;12.732;2022-08-26T04:58:52;97669.88;;;20.86;66.97
36242;BME280;22283;42.748;12.732;2022-08-26T05:03:52;97666.75;;;21.61;64.26
36242;BME280;22283;42.748;12.732;2022-08-26T05:08:54;97661.97;;;22.06;61.33
36242;BME280;22283;42.748;12.732;2022-08-26T05:13:54;97668.13;;;22.22;60.72
36242;BME280;22283;42.748;12.732;2022-08-26T05:18:55;97674.53;;;21.99;60.76
36242;BME280;22283;42.748;12.732;2022-08-26T05:23:57;97673.75;;;21.56;62.94
36242;BME280;22283;42.748;12.732;2022-08-26T05:28:58;97672.53;;;21.80;63.13
36242;BME280;22283;42.748;12.732;2022-08-26T05:33:59;97664.31;;;22.16;62.03
36242;BME280;22283;42.748;12.732;2022-08-26T05:39:03;97665.91;;;22.80;59.95
36242;BME280;22283;42.748;12.732;2022-08-26T05:44:06;97666.56;;;23.50;56.75
36242;BME280;22283;42.748;12.732;2022-08-26T05:49:07;97683.47;;;23.85;55.33
36242;BME280;22283;42.748;12.732;2022-08-26T05:54:08;97688.22;;;24.23;54.59
36242;BME280;22283;42.748;12.732;2022-08-26T05:59:12;97685.28;;;24.58;53.28
36242;BME280;22283;42.748;12.732;2022-08-26T06:04:13;97682.72;;;24.76;53.71
36242;BME280;22283;42.748;12.732;2022-08-26T06:09:14;97697.59;;;24.98;53.10
36242;BME280;22283;42.748;12.732;2022-08-26T06:14:15;97689.94;;;25.40;51.58
36242;BME280;22283;42.748;12.732;2022-08-26T06:19:16;97685.59;;;25.71;50.86
36242;BME280;22283;42.748;12.732;2022-08-26T06:24:17;97687.56;;;25.89;50.27
36242;BME280;22283;42.748;12.732;2022-08-26T06:29:36;97685.00;;;26.19;49.15
36242;BME280;22283;42.748;12.732;2022-08-26T06:34:37;97686.13;;;25.86;50.12
36242;BME280;22283;42.748;12.732;2022-08-26T06:39:38;97681.03;;;25.65;50.91
36242;BME280;22283;42.748;12.732;2022-08-26T06:44:39;97694.38;;;25.35;51.35
36242;BME280;22283;42.748;12.732;2022-08-26T06:49:40;97683.63;;;25.53;50.95
36242;BME280;22283;42.748;12.732;2022-08-26T06:54:41;97692.59;;;25.85;50.35
36242;BME280;22283;42.748;12.732;2022-08-26T06:59:42;97692.56;;;26.35;49.53
36242;BME280;22283;42.748;12.732;2022-08-26T07:04:43;97689.91;;;26.72;48.29
36242;BME280;22283;42.748;12.732;2022-08-26T07:09:43;97698.28;;;27.07;47.27
36242;BME280;22283;42.748;12.732;2022-08-26T07:14:45;97697.44;;;27.07;47.49
36242;BME280;22283;42.748;12.732;2022-08-26T07:19:46;97687.38;;;27.14;47.33
36242;BME280;22283;42.748;12.732;2022-08-26T07:24:48;97688.25;;;27.56;46.36
36242;BME280;22283;42.748;12.732;2022-08-26T07:29:49;97692.41;;;27.70;45.41
36242;BME280;22283;42.748;12.732;2022-08-26T07:34:50;97693.03;;;27.42;45.45
36242;BME280;22283;42.748;12.732;2022-08-26T07:39:50;97692.94;;;27.19;44.85
36242;BME280;22283;42.748;12.732;2022-08-26T07:44:51;97695.94;;;27.29;45.36
36242;BME280;22283;42.748;12.732;2022-08-26T07:49:54;97692.81;;;27.56;44.50
36242;BME280;22283;42.748;12.732;2022-08-26T07:54:57;97691.25;;;27.36;45.91
36242;BME280;22283;42.748;12.732;2022-08-26T07:59:58;97695.97;;;27.11;46.40
36242;BME280;22283;42.748;12.732;2022-08-26T08:04:59;97698.50;;;27.06;45.15
36242;BME280;22283;42.748;12.732;2022-08-26T08:09:59;97694.47;;;26.96;46.02
36242;BME280;22283;42.748;12.732;2022-08-26T08:15:00;97700.69;;;26.60;47.51
36242;BME280;22283;42.748;12.732;2022-08-26T08:20:01;97705.63;;;26.70;47.37
36242;BME280;22283;42.748;12.732;2022-08-26T08:25:04;97705.00;;;26.86;47.20
36242;BME280;22283;42.748;12.732;2022-08-26T08:30:06;97698.78;;;27.34;45.92
36242;BME280;22283;42.748;12.732;2022-08-26T08:35:07;97698.00;;;27.45;44.61
36242;BME280;22283;42.748;12.732;2022-08-26T08:40:11;97689.72;;;27.40;44.55
36242;BME280;22283;42.748;12.732;2022-08-26T08:50:45;97682.34;;;27.59;43.94
36242;BME280;22283;42.748;12.732;2022-08-26T09:06:48;97683.41;;;28.00;43.88
36242;BME280;22283;42.748;12.732;2022-08-26T09:11:53;97678.13;;;28.40;42.63
36242;BME280;22283;42.748;12.732;2022-08-26T09:17:23;97680.72;;;28.12;43.49
36242;BME280;22283;42.748;12.732;2022-08-26T09:22:34;97680.09;;;28.22;42.72
36242;BME280;22283;42.748;12.732;2022-08-26T09:27:38;97674.09;;;28.55;41.55
36242;BME280;22283;42.748;12.732;2022-08-26T09:32:40;97667.72;;;28.37;41.45
36242;BME280;22283;42.748;12.732;2022-08-26T09:37:44;97663.16;;;28.78;41.53
36242;BME280;22283;42.748;12.732;2022-08-26T09:48:01;97652.00;;;29.03;40.80
36242;BME280;22283;42.748;12.732;2022-08-26T09:58:37;97640.63;;;29.35;39.87
36242;BME280;22283;42.748;12.732;2022-08-26T10:03:37;97630.72;;;29.46;39.12
36242;BME280;22283;42.748;12.732;2022-08-26T10:08:42;97626.41;;;29.78;38.93
36242;BME280;22283;42.748;12.732;2022-08-26T10:13:47;97626.81;;;30.04;39.05
36242;BME280;22283;42.748;12.732;2022-08-26T10:24:02;97615.25;;;29.97;38.26
36242;BME280;22283;42.748;12.732;2022-08-26T10:29:16;97605.81;;;30.21;37.52
36242;BME280;22283;42.748;12.732;2022-08-26T10:34:19;97600.41;;;30.65;36.91
36242;BME280;22283;42.748;12.732;2022-08-26T10:39:24;97594.97;;;30.87;35.95
36242;BME280;22283;42.748;12.732;2022-08-26T10:44:30;97584.19;;;31.24;35.60
36242;BME280;22283;42.748;12.732;2022-08-26T10:49:32;97580.56;;;31.46;35.02
36242;BME280;22283;42.748;12.732;2022-08-26T10:55:02;97587.34;;;31.16;35.66
36242;BME280;22283;42.748;12.732;2022-08-26T11:00:09;97569.69;;;30.97;35.11
36242;BME280;22283;42.748;12.732;2022-08-26T11:05:30;97576.59;;;31.04;34.64
36242;BME280;22283;42.748;12.732;2022-08-26T11:20:44;97544.19;;;31.40;33.81
36242;BME280;22283;42.748;12.732;2022-08-26T11:30:55;97526.53;;;31.95;33.73
36242;BME280;22283;42.748;12.732;2022-08-26T11:35:56;97516.97;;;31.93;33.06
36242;BME280;22283;42.748;12.732;2022-08-26T11:41:17;97524.06;;;31.56;33.00
36242;BME280;22283;42.748;12.732;2022-08-26T11:46:25;97519.19;;;31.64;34.09
36242;BME280;22283;42.748;12.732;2022-08-26T11:51:27;97512.47;;;32.24;32.60
36242;BME280;22283;42.748;12.732;2022-08-26T11:56:30;97502.09;;;32.31;32.19
36242;BME280;22283;42.748;12.732;2022-08-26T12:01:39;97497.19;;;32.38;31.60
36242;BME280;22283;42.748;12.732;2022-08-26T12:06:48;97485.84;;;32.04;31.46
36242;BME280;22283;42.748;12.732;2022-08-26T12:11:50;97494.97;;;32.30;31.20
36242;BME280;22283;42.748;12.732;2022-08-26T12:16:53;97487.31;;;32.32;30.47
36242;BME280;22283;42.748;12.732;2022-08-26T12:22:00;97482.56;;;32.90;29.49
36242;BME280;22283;42.748;12.732;2022-08-26T12:32:17;97474.13;;;33.02;29.23
36242;BME280;22283;42.748;12.732;2022-08-26T12:37:25;97464.19;;;32.65;29.64
36242;BME280;22283;42.748;12.732;2022-08-26T12:42:40;97457.63;;;32.81;26.43
36242;BME280;22283;42.748;12.732;2022-08-26T12:47:42;97448.94;;;32.95;27.33
36242;BME280;22283;42.748;12.732;2022-08-26T12:53:30;97436.56;;;33.18;28.65
36242;BME280;22283;42.748;12.732;2022-08-26T12:58:36;97426.97;;;32.79;28.30
36242;BME280;22283;42.748;12.732;2022-08-26T13:03:40;97424.72;;;32.61;28.32
36242;BME280;22283;42.748;12.732;2022-08-26T13:08:45;97416.56;;;33.02;27.32
36242;BME280;22283;42.748;12.732;2022-08-26T13:14:00;97409.44;;;33.32;26.54
36242;BME280;22283;42.748;12.732;2022-08-26T13:19:07;97400.13;;;33.48;27.30
36242;BME280;22283;42.748;12.732;2022-08-26T13:24:20;97399.50;;;33.71;27.22
36242;BME280;22283;42.748;12.732;2022-08-26T13:29:21;97393.50;;;33.64;27.45
36242;BME280;22283;42.748;12.732;2022-08-26T13:34:22;97379.69;;;33.85;27.28
36242;BME280;22283;42.748;12.732;2022-08-26T13:39:24;97383.97;;;33.46;27.15
36242;BME280;22283;42.748;12.732;2022-08-26T13:44:26;97375.97;;;33.45;27.31
36242;BME280;22283;42.748;12.732;2022-08-26T13:49:27;97366.38;;;33.42;28.12
36242;BME280;22283;42.748;12.732;2022-08-26T14:00:25;97351.84;;;33.52;27.43
36242;BME280;22283;42.748;12.732;2022-08-26T14:05:27;97352.34;;;33.64;27.09
36242;BME280;22283;42.748;12.732;2022-08-26T14:10:29;97349.97;;;33.17;26.47
36242;BME280;22283;42.748;12.732;2022-08-26T14:15:37;97342.03;;;33.10;27.10
36242;BME280;22283;42.748;12.732;2022-08-26T14:20:48;97342.59;;;33.22;27.50
36242;BME280;22283;42.748;12.732;2022-08-26T14:32:12;97335.41;;;33.37;27.15
36242;BME280;22283;42.748;12.732;2022-08-26T14:42:37;97322.78;;;33.41;28.27
36242;BME280;22283;42.748;12.732;2022-08-26T14:47:48;97332.72;;;33.11;28.28
36242;BME280;22283;42.748;12.732;2022-08-26T14:53:01;97328.03;;;33.27;28.45
36242;BME280;22283;42.748;12.732;2022-08-26T14:58:21;97324.44;;;33.47;27.80
36242;BME280;22283;42.748;12.732;2022-08-26T15:09:41;97311.91;;;33.15;28.34
36242;BME280;22283;42.748;12.732;2022-08-26T15:15:11;97303.31;;;33.42;27.97
36242;BME280;22283;42.748;12.732;2022-08-26T15:20:22;97301.47;;;33.22;27.48
36242;BME280;22283;42.748;12.732;2022-08-26T15:25:30;97293.00;;;32.78;27.89
36242;BME280;22283;42.748;12.732;2022-08-26T15:30:51;97287.25;;;32.85;28.30
36242;BME280;22283;42.748;12.732;2022-08-26T15:36:00;97285.63;;;32.84;28.76
36242;BME280;22283;42.748;12.732;2022-08-26T15:41:03;97279.06;;;32.59;28.52
36242;BME280;22283;42.748;12.732;2022-08-26T15:51:34;97276.84;;;32.46;28.37
36242;BME280;22283;42.748;12.732;2022-08-26T16:03:40;97294.88;;;32.16;28.67
36242;BME280;22283;42.748;12.732;2022-08-26T16:09:34;97302.81;;;32.13;28.99
36242;BME280;22283;42.748;12.732;2022-08-26T16:21:05;97316.00;;;31.58;29.41
36242;BME280;22283;42.748;12.732;2022-08-26T16:26:11;97323.03;;;31.44;29.83
36242;BME280;22283;42.748;12.732;2022-08-26T16:37:38;97327.22;;;31.14;30.46
36242;BME280;22283;42.748;12.732;2022-08-26T16:49:01;97321.34;;;30.90;30.80
36242;BME280;22283;42.748;12.732;2022-08-26T17:07:24;97358.03;;;29.30;40.11
36242;BME280;22283;42.748;12.732;2022-08-26T17:12:26;97365.03;;;28.92;41.46
36242;BME280;22283;42.748;12.732;2022-08-26T17:17:39;97376.97;;;28.58;42.30
36242;BME280;22283;42.748;12.732;2022-08-26T17:22:44;97376.03;;;28.35;43.44
36242;BME280;22283;42.748;12.732;2022-08-26T17:28:14;97389.81;;;28.17;44.43
36242;BME280;22283;42.748;12.732;2022-08-26T17:33:21;97394.44;;;28.16;44.38
36242;BME280;22283;42.748;12.732;2022-08-26T17:38:22;97400.94;;;28.15;43.96
36242;BME280;22283;42.748;12.732;2022-08-26T17:43:56;97409.69;;;28.17;43.91
36242;BME280;22283;42.748;12.732;2022-08-26T18:01:14;97397.75;;;27.55;46.22
36242;BME280;22283;42.748;12.732;2022-08-26T18:18:51;97429.63;;;27.36;47.77
36242;BME280;22283;42.748;12.732;2022-08-26T18:24:40;97437.47;;;27.20;48.88
36242;BME280;22283;42.748;12.732;2022-08-26T18:30:19;97445.41;;;27.04;49.69
36242;BME280;22283;42.748;12.732;2022-08-26T18:41:07;97467.34;;;26.90;50.41
36242;BME280;22283;42.748;12.732;2022-08-26T18:46:11;97473.69;;;26.84;49.35
36242;BME280;22283;42.748;12.732;2022-08-26T18:51:18;97478.78;;;26.81;49.57
36242;BME280;22283;42.748;12.732;2022-08-26T18:56:19;97481.34;;;26.76;50.04
36242;BME280;22283;42.748;12.732;2022-08-26T19:01:27;97473.41;;;26.62;49.99
36242;BME280;22283;42.748;12.732;2022-08-26T19:06:39;97478.34;;;26.54;50.52
36242;BME280;22283;42.748;12.732;2022-08-26T19:11:40;97486.31;;;26.48;50.87
36242;BME280;22283;42.748;12.732;2022-08-26T19:16:44;97493.09;;;26.39;50.88
36242;BME280;22283;42.748;12.732;2022-08-26T19:21:46;97500.19;;;26.22;51.29
36242;BME280;22283;42.748;12.732;2022-08-26T19:26:50;97498.44;;;26.09;51.10
36242;BME280;22283;42.748;12.732;2022-08-26T19:31:52;97501.47;;;26.01;51.39
36242;BME280;22283;42.748;12.732;2022-08-26T19:36:54;97492.38;;;25.95;51.97
36242;BME280;22283;42.748;12.732;2022-08-26T19:42:06;97488.38;;;25.80;52.43
36242;BME280;22283;42.748;12.732;2022-08-26T19:47:10;97485.09;;;25.71;52.74
36242;BME280;22283;42.748;12.732;2022-08-26T19:52:11;97478.03;;;25.70;52.77
36242;BME280;22283;42.748;12.732;2022-08-26T19:57:22;97490.63;;;25.58;53.15
36242;BME280;22283;42.748;12.732;2022-08-26T20:02:23;97486.56;;;25.48;53.68
36242;BME280;22283;42.748;12.732;2022-08-26T20:13:32;97499.75;;;25.20;54.78
36242;BME280;22283;42.748;12.732;2022-08-26T20:18:33;97499.34;;;25.16;55.15
36242;BME280;22283;42.748;12.732;2022-08-26T20:24:16;97486.28;;;25.07;55.91
36242;BME280;22283;42.748;12.732;2022-08-26T20:29:17;97483.66;;;24.93;55.95
36242;BME280;22283;42.748;12.732;2022-08-26T20:34:46;97492.44;;;24.89;56.41
36242;BME280;22283;42.748;12.732;2022-08-26T20:39:56;97492.59;;;24.94;56.44
36242;BME280;22283;42.748;12.732;2022-08-26T20:44:59;97496.59;;;24.91;56.35
36242;BME280;22283;42.748;12.732;2022-08-26T20:50:43;97487.69;;;24.84;56.55
36242;BME280;22283;42.748;12.732;2022-08-26T20:56:40;97495.19;;;24.82;57.03
36242;BME280;22283;42.748;12.732;2022-08-26T21:01:46;97495.84;;;24.77;56.94
36242;BME280;22283;42.748;12.732;2022-08-26T21:06:47;97501.78;;;24.61;57.32
36242;BME280;22283;42.748;12.732;2022-08-26T21:11:49;97496.34;;;24.68;57.07
36242;BME280;22283;42.748;12.732;2022-08-26T21:16:55;97501.78;;;24.61;57.24
36242;BME280;22283;42.748;12.732;2022-08-26T21:21:56;97511.22;;;24.45;57.68
36242;BME280;22283;42.748;12.732;2022-08-26T21:26:59;97507.47;;;24.46;57.64
36242;BME280;22283;42.748;12.732;2022-08-26T21:32:19;97516.78;;;24.50;57.24
36242;BME280;22283;42.748;12.732;2022-08-26T21:37:23;97523.25;;;24.49;57.61
36242;BME280;22283;42.748;12.732;2022-08-26T21:42:30;97526.84;;;24.43;57.76
36242;BME280;22283;42.748;12.732;2022-08-26T21:47:32;97539.94;;;24.40;57.86
36242;BME280;22283;42.748;12.732;2022-08-26T21:59:05;97543.53;;;24.20;58.39
36242;BME280;22283;42.748;12.732;2022-08-26T22:04:34;97531.41;;;24.29;58.65
36242;BME280;22283;42.748;12.732;2022-08-26T22:09:47;97540.19;;;24.25;58.67
36242;BME280;22283;42.748;12.732;2022-08-26T22:21:21;97538.56;;;24.11;58.78
36242;BME280;22283;42.748;12.732;2022-08-26T22:38:42;97535.63;;;24.19;58.28
36242;BME280;22283;42.748;12.732;2022-08-26T22:49:51;97543.13;;;24.17;58.61
36242;BME280;22283;42.748;12.732;2022-08-26T23:07:35;97541.25;;;24.17;58.52
36242;BME280;22283;42.748;12.732;2022-08-26T23:12:36;97537.72;;;24.10;58.82
36242;BME280;22283;42.748;12.732;2022-08-26T23:17:38;97536.13;;;23.96;59.18
36242;BME280;22283;42.748;12.732;2022-08-26T23:22:46;97539.44;;;23.91;59.29
36242;BME280;22283;42.748;12.732;2022-08-26T23:27:50;97539.28;;;23.73;59.76
36242;BME280;22283;42.748;12.732;2022-08-26T23:32:50;97540.53;;;23.77;59.98
36242;BME280;22283;42.748;12.732;2022-08-26T23:37:52;97543.63;;;23.67;60.25
36242;BME280;22283;42.748;12.732;2022-08-26T23:42:55;97555.66;;;23.71;60.37
36242;BME280;22283;42.748;12.732;2022-08-26T23:47:57;97544.69;;;23.73;60.08
36242;BME280;22283;42.748;12.732;2022-08-26T23:52:58;97531.59;;;23.56;60.51
36242;BME280;22283;42.748;12.732;2022-08-26T23:58:05;97535.31;;;23.49;60.97
